createdAt,value
2023-03-19T00:02:17.976Z,8.70
2023-03-19T00:05:06.201Z,8.63
2023-03-19T00:07:52.322Z,8.55
2023-03-19T00:10:39.354Z,8.48
2023-03-19T00:13:25.340Z,8.41
2023-03-19T00:16:11.474Z,8.37
2023-03-19T00:18:57.986Z,8.29
2023-03-19T00:21:45.455Z,8.22
2023-03-19T00:24:31.338Z,8.16
2023-03-19T00:27:17.405Z,8.12
2023-03-19T00:30:04.724Z,8.08
2023-03-19T00:32:50.896Z,8.03
2023-03-19T00:35:37.016Z,7.97
2023-03-19T00:38:24.930Z,7.87
2023-03-19T00:41:11.047Z,7.83
2023-03-19T00:43:57.315Z,7.80
2023-03-19T00:46:43.270Z,7.76
2023-03-19T00:49:29.419Z,7.73
2023-03-19T00:52:15.386Z,7.71
2023-03-19T00:55:02.739Z,7.65
2023-03-19T00:57:48.521Z,7.61
2023-03-19T01:00:37.661Z,7.51
2023-03-19T01:03:23.766Z,7.50
2023-03-19T01:06:09.670Z,7.49
2023-03-19T01:08:55.997Z,7.45
2023-03-19T01:11:46.277Z,7.40
2023-03-19T01:14:32.275Z,7.36
2023-03-19T01:17:18.111Z,7.31
2023-03-19T01:20:04.280Z,7.24
2023-03-19T01:22:50.306Z,7.20
2023-03-19T01:25:36.689Z,7.16
2023-03-19T01:28:25.850Z,7.11
2023-03-19T01:31:12.100Z,7.04
2023-03-19T01:34:17.098Z,7.00
2023-03-19T01:37:09.638Z,6.93
2023-03-19T01:39:56.384Z,6.89
2023-03-19T01:42:52.064Z,6.82
2023-03-19T01:46:00.611Z,6.77
2023-03-19T01:48:59.859Z,6.72
2023-03-19T01:51:46.767Z,6.68
2023-03-19T01:54:48.029Z,6.61
2023-03-19T01:57:56.949Z,6.54
2023-03-19T02:00:56.045Z,6.48
2023-03-19T02:03:43.391Z,6.42
2023-03-19T02:06:35.028Z,6.37
2023-03-19T02:09:21.535Z,6.30
2023-03-19T02:12:08.197Z,6.25
2023-03-19T02:14:54.187Z,6.20
2023-03-19T02:17:40.487Z,6.15
2023-03-19T02:20:30.842Z,6.10
2023-03-19T02:23:19.041Z,6.05
2023-03-19T02:26:10.866Z,6.00
2023-03-19T02:28:57.033Z,5.93
2023-03-19T02:31:51.238Z,5.86
2023-03-19T02:34:38.367Z,5.77
2023-03-19T02:37:25.988Z,5.68
2023-03-19T02:40:12.740Z,5.61
2023-03-19T02:42:59.952Z,5.56
2023-03-19T02:45:46.298Z,5.51
2023-03-19T02:48:32.541Z,5.45
2023-03-19T02:51:19.838Z,5.44
2023-03-19T02:54:06.312Z,5.47
2023-03-19T02:56:52.753Z,5.51
2023-03-19T02:59:40.397Z,5.49
2023-03-19T03:02:26.712Z,5.45
2023-03-19T03:05:13.510Z,5.44
2023-03-19T03:07:59.723Z,5.44
2023-03-19T03:10:46.480Z,5.45
2023-03-19T03:13:32.905Z,5.49
2023-03-19T03:16:20.438Z,5.55
2023-03-19T03:19:06.709Z,5.58
2023-03-19T03:21:52.987Z,5.58
2023-03-19T03:24:39.264Z,5.59
2023-03-19T03:27:25.109Z,5.63
2023-03-19T03:30:11.602Z,5.67
2023-03-19T03:32:59.225Z,5.72
2023-03-19T03:35:45.313Z,5.73
2023-03-19T03:38:32.604Z,5.74
2023-03-19T03:41:18.805Z,5.72
2023-03-19T03:44:04.983Z,5.74
2023-03-19T03:46:53.692Z,5.75
2023-03-19T03:49:41.501Z,5.74
2023-03-19T03:52:31.310Z,5.72
2023-03-19T03:55:17.563Z,5.73
2023-03-19T03:58:03.761Z,5.75
2023-03-19T04:00:49.585Z,5.76
2023-03-19T04:03:36.066Z,5.78
2023-03-19T04:06:23.235Z,5.79
2023-03-19T04:09:23.004Z,5.83
2023-03-19T04:12:09.408Z,5.88
2023-03-19T04:14:55.773Z,5.91
2023-03-19T04:17:41.944Z,5.89
2023-03-19T04:20:29.097Z,5.91
2023-03-19T04:23:16.791Z,5.94
2023-03-19T04:26:03.237Z,5.93
2023-03-19T04:28:50.245Z,5.96
2023-03-19T04:31:36.080Z,6.00
2023-03-19T04:34:22.048Z,6.00
2023-03-19T04:37:10.262Z,6.01
2023-03-19T04:40:05.849Z,5.99
2023-03-19T04:42:54.803Z,5.99
2023-03-19T04:45:50.815Z,6.00
2023-03-19T04:48:37.791Z,5.99
2023-03-19T04:51:24.081Z,5.97
2023-03-19T04:54:10.982Z,5.95
2023-03-19T04:56:58.651Z,5.91
2023-03-19T04:59:49.059Z,5.94
2023-03-19T05:02:35.803Z,5.94
2023-03-19T05:05:22.167Z,5.92
2023-03-19T05:08:09.362Z,5.89
2023-03-19T05:10:55.704Z,5.84
2023-03-19T05:13:43.488Z,5.83
2023-03-19T05:16:29.818Z,5.88
2023-03-19T05:19:16.458Z,5.93
2023-03-19T05:22:02.740Z,5.92
2023-03-19T05:24:49.022Z,5.94
2023-03-19T05:27:35.030Z,5.97
2023-03-19T05:30:27.945Z,5.99
2023-03-19T05:33:27.764Z,6.00
2023-03-19T05:36:14.071Z,6.01
2023-03-19T05:39:11.589Z,6.11
2023-03-19T05:42:00.532Z,6.11
2023-03-19T05:44:49.233Z,6.13
2023-03-19T05:47:49.990Z,6.17
2023-03-19T05:50:36.976Z,6.24
2023-03-19T05:53:36.514Z,6.34
2023-03-19T05:56:42.991Z,6.35
2023-03-19T05:59:40.838Z,6.41
2023-03-19T06:02:51.543Z,6.48
2023-03-19T06:05:52.640Z,6.54
2023-03-19T06:08:55.596Z,6.61
2023-03-19T06:11:52.681Z,6.66
2023-03-19T06:14:59.176Z,6.71
2023-03-19T06:18:21.464Z,6.79
2023-03-19T06:21:07.554Z,6.80
2023-03-19T06:23:53.437Z,6.84
2023-03-19T06:26:47.362Z,6.90
2023-03-19T06:29:34.655Z,6.94
2023-03-19T06:32:33.485Z,7.03
2023-03-19T06:35:26.118Z,7.08
2023-03-19T06:38:12.589Z,7.16
2023-03-19T06:40:58.576Z,7.23
2023-03-19T06:43:44.752Z,7.31
2023-03-19T06:46:31.259Z,7.38
2023-03-19T06:49:17.270Z,7.40
2023-03-19T06:52:04.651Z,7.45
2023-03-19T06:54:50.645Z,7.50
2023-03-19T06:57:36.868Z,7.56
2023-03-19T07:00:22.807Z,7.65
2023-03-19T07:03:08.606Z,7.72
2023-03-19T07:05:54.587Z,7.79
2023-03-19T07:08:46.197Z,7.87
2023-03-19T07:11:35.587Z,7.97
2023-03-19T07:14:22.224Z,8.04
2023-03-19T07:17:10.324Z,8.12
2023-03-19T07:19:56.398Z,8.21
2023-03-19T07:22:42.579Z,8.34
2023-03-19T07:25:29.734Z,8.45
2023-03-19T07:28:16.404Z,8.65
2023-03-19T07:31:02.399Z,8.88
2023-03-19T07:33:48.292Z,9.07
2023-03-19T07:36:34.436Z,9.28
2023-03-19T07:39:20.799Z,9.44
2023-03-19T07:42:08.398Z,9.63
2023-03-19T07:44:58.679Z,9.72
2023-03-19T07:47:44.590Z,9.79
2023-03-19T07:50:30.810Z,9.85
2023-03-19T07:53:16.516Z,9.93
2023-03-19T07:56:02.393Z,10.02
2023-03-19T07:58:50.055Z,10.18
2023-03-19T08:01:36.433Z,10.34
2023-03-19T08:04:22.982Z,10.47
2023-03-19T08:07:10.708Z,10.63
2023-03-19T08:09:57.485Z,10.73
2023-03-19T08:12:43.475Z,10.80
2023-03-19T08:15:30.790Z,10.93
2023-03-19T08:18:16.858Z,11.05
2023-03-19T08:21:02.513Z,11.14
2023-03-19T08:23:48.381Z,11.24
2023-03-19T08:26:34.093Z,11.28
2023-03-19T08:29:19.811Z,11.30
2023-03-19T08:32:07.462Z,11.39
2023-03-19T08:34:53.436Z,11.49
2023-03-19T08:37:39.236Z,11.60
2023-03-19T08:40:25.486Z,11.82
2023-03-19T08:43:11.518Z,12.07
2023-03-19T08:45:57.647Z,12.28
2023-03-19T08:48:44.971Z,12.33
2023-03-19T08:51:31.411Z,12.43
2023-03-19T08:54:17.622Z,12.55
2023-03-19T08:57:04.361Z,12.79
2023-03-19T08:59:50.271Z,12.91
2023-03-19T09:02:36.396Z,13.11
2023-03-19T09:05:24.226Z,13.27
2023-03-19T09:08:10.082Z,13.44
2023-03-19T09:10:56.158Z,13.55
2023-03-19T09:13:42.480Z,13.66
2023-03-19T09:16:28.352Z,13.78
2023-03-19T09:19:14.380Z,13.91
2023-03-19T09:22:01.491Z,14.11
2023-03-19T09:24:47.273Z,14.30
2023-03-19T09:27:33.126Z,14.47
2023-03-19T09:30:19.077Z,14.61
2023-03-19T09:33:05.067Z,14.73
2023-03-19T09:35:51.128Z,14.86
2023-03-19T09:38:39.192Z,15.01
2023-03-19T09:41:28.135Z,15.09
2023-03-19T09:44:14.768Z,15.10
2023-03-19T09:47:03.271Z,15.16
2023-03-19T09:49:49.155Z,15.16
2023-03-19T09:52:41.269Z,15.23
2023-03-19T09:55:32.510Z,15.26
2023-03-19T09:58:19.198Z,15.34
2023-03-19T10:01:05.413Z,15.39
2023-03-19T10:03:54.676Z,15.46
2023-03-19T10:06:41.139Z,15.71
2023-03-19T10:09:33.792Z,16.09
2023-03-19T10:12:25.504Z,16.50
2023-03-19T10:15:15.294Z,17.06
2023-03-19T10:18:01.919Z,17.46
2023-03-19T10:20:49.323Z,17.68
2023-03-19T10:23:38.596Z,17.73
2023-03-19T10:26:27.416Z,17.77
2023-03-19T10:29:16.534Z,17.80
2023-03-19T10:32:04.712Z,17.67
2023-03-19T10:34:53.059Z,17.46
2023-03-19T10:37:39.550Z,17.39
2023-03-19T10:40:27.267Z,17.29
2023-03-19T10:43:14.540Z,17.31
2023-03-19T10:46:02.075Z,17.27
2023-03-19T10:48:48.290Z,17.45
2023-03-19T10:51:34.416Z,17.56
2023-03-19T10:54:22.013Z,17.81
2023-03-19T10:57:11.451Z,17.79
2023-03-19T10:59:57.599Z,18.22
2023-03-19T11:02:48.597Z,18.44
2023-03-19T11:05:35.184Z,18.66
2023-03-19T11:08:34.898Z,18.90
2023-03-19T11:11:26.158Z,19.01
2023-03-19T11:14:15.674Z,19.23
2023-03-19T11:17:04.823Z,19.58
2023-03-19T11:19:53.368Z,19.86
2023-03-19T11:22:39.473Z,20.05
2023-03-19T11:25:27.037Z,20.04
2023-03-19T11:28:13.967Z,20.35
2023-03-19T11:31:01.338Z,20.32
2023-03-19T11:33:54.109Z,20.11
2023-03-19T11:36:42.625Z,20.18
2023-03-19T11:39:30.373Z,19.68
2023-03-19T11:42:37.390Z,19.84
2023-03-19T11:45:26.357Z,19.88
2023-03-19T11:48:19.317Z,19.95
2023-03-19T11:51:05.689Z,20.04
2023-03-19T11:53:57.578Z,19.85
2023-03-19T11:56:44.220Z,19.99
2023-03-19T11:59:36.641Z,20.07
2023-03-19T12:02:40.881Z,20.08
2023-03-19T12:05:29.349Z,19.88
2023-03-19T12:08:18.747Z,20.12
2023-03-19T12:11:11.148Z,20.10
2023-03-19T12:14:06.571Z,19.87
2023-03-19T12:17:04.234Z,19.95
2023-03-19T12:20:04.888Z,19.67
2023-03-19T12:22:55.029Z,19.67
2023-03-19T12:25:46.827Z,19.56
2023-03-19T12:28:35.811Z,19.44
2023-03-19T12:31:29.278Z,19.31
2023-03-19T12:34:27.098Z,19.32
2023-03-19T12:37:14.791Z,19.16
2023-03-19T12:40:07.712Z,19.06
2023-03-19T12:42:53.667Z,19.03
2023-03-19T12:45:42.103Z,19.08
2023-03-19T12:48:29.000Z,18.64
2023-03-19T12:51:16.861Z,18.71
2023-03-19T12:54:04.534Z,18.58
2023-03-19T12:56:53.313Z,18.39
2023-03-19T12:59:40.334Z,18.17
2023-03-19T13:02:28.472Z,18.08
2023-03-19T13:05:22.953Z,17.91
2023-03-19T13:08:11.964Z,17.76
2023-03-19T13:11:00.558Z,17.58
2023-03-19T13:13:48.605Z,17.56
2023-03-19T13:16:35.118Z,17.40
2023-03-19T13:19:25.613Z,17.40
2023-03-19T13:22:12.272Z,17.02
2023-03-19T13:24:58.539Z,17.14
2023-03-19T13:27:44.361Z,17.09
2023-03-19T13:30:31.448Z,16.98
2023-03-19T13:33:18.701Z,16.85
2023-03-19T13:36:07.624Z,16.82
2023-03-19T13:38:53.651Z,16.77
2023-03-19T13:41:49.514Z,16.72
2023-03-19T13:44:36.978Z,16.66
2023-03-19T13:47:43.258Z,16.67
2023-03-19T13:50:30.182Z,16.69
2023-03-19T13:53:37.670Z,16.69
2023-03-19T13:56:30.302Z,16.62
2023-03-19T13:59:23.731Z,16.60
2023-03-19T14:02:25.326Z,16.56
2023-03-19T14:05:17.076Z,16.61
2023-03-19T14:08:03.324Z,16.55
2023-03-19T14:10:50.041Z,16.56
2023-03-19T14:13:38.493Z,16.64
2023-03-19T14:16:25.346Z,16.69
2023-03-19T14:19:12.296Z,16.63
2023-03-19T14:22:09.297Z,16.66
2023-03-19T14:24:57.935Z,16.78
2023-03-19T14:27:45.139Z,16.92
2023-03-19T14:30:33.240Z,16.94
2023-03-19T14:33:21.225Z,16.95
2023-03-19T14:36:07.469Z,16.89
2023-03-19T14:38:54.206Z,16.86
2023-03-19T14:41:41.118Z,16.85
2023-03-19T14:44:39.623Z,16.82
2023-03-19T14:47:27.971Z,16.84
2023-03-19T14:50:32.945Z,16.86
2023-03-19T14:53:19.881Z,16.88
2023-03-19T14:56:11.839Z,16.87
2023-03-19T14:58:58.265Z,16.84
2023-03-19T15:01:45.345Z,16.81
2023-03-19T15:04:32.782Z,16.77
2023-03-19T15:07:19.565Z,16.69
2023-03-19T15:10:06.835Z,16.71
2023-03-19T15:13:11.152Z,16.61
2023-03-19T15:16:05.916Z,16.69
2023-03-19T15:18:51.731Z,16.67
2023-03-19T15:21:39.716Z,16.63
2023-03-19T15:24:26.937Z,16.66
2023-03-19T15:27:19.793Z,16.59
2023-03-19T15:30:16.157Z,16.54
2023-03-19T15:33:17.620Z,16.48
2023-03-19T15:36:12.918Z,16.42
2023-03-19T15:39:00.877Z,16.37
2023-03-19T15:41:47.464Z,16.35
2023-03-19T15:44:34.216Z,16.33
2023-03-19T15:47:20.863Z,16.21
2023-03-19T15:50:07.574Z,16.19
2023-03-19T15:52:54.464Z,16.21
2023-03-19T15:55:41.868Z,16.18
2023-03-19T15:58:28.524Z,16.11
2023-03-19T16:01:14.611Z,16.02
2023-03-19T16:04:01.069Z,16.00
2023-03-19T16:06:48.542Z,15.95
2023-03-19T16:09:34.761Z,15.88
2023-03-19T16:12:36.273Z,15.79
2023-03-19T16:15:22.995Z,15.66
2023-03-19T16:18:27.978Z,15.61
2023-03-19T16:21:15.823Z,15.55
2023-03-19T16:24:02.310Z,15.46
2023-03-19T16:26:48.465Z,15.45
2023-03-19T16:29:37.046Z,15.42
2023-03-19T16:32:23.452Z,15.37
2023-03-19T16:35:12.468Z,15.29
2023-03-19T16:38:07.001Z,15.19
2023-03-19T16:41:07.070Z,14.95
2023-03-19T16:43:53.436Z,14.93
2023-03-19T16:46:41.724Z,14.81
2023-03-19T16:49:27.622Z,14.82
2023-03-19T16:52:14.568Z,14.74
2023-03-19T16:55:00.816Z,14.60
2023-03-19T16:57:46.732Z,14.58
2023-03-19T17:00:32.863Z,14.49
2023-03-19T17:03:20.697Z,14.43
2023-03-19T17:06:06.978Z,14.36
2023-03-19T17:08:52.975Z,14.29
2023-03-19T17:11:40.699Z,14.24
2023-03-19T17:14:26.411Z,14.15
2023-03-19T17:17:14.277Z,14.09
2023-03-19T17:20:02.152Z,14.02
2023-03-19T17:22:48.356Z,13.95
2023-03-19T17:25:34.872Z,13.86
2023-03-19T17:28:20.817Z,13.81
2023-03-19T17:31:06.897Z,13.73
2023-03-19T17:33:53.257Z,13.68
2023-03-19T17:36:40.852Z,13.56
2023-03-19T17:39:29.882Z,13.52
2023-03-19T17:42:18.181Z,13.48
2023-03-19T17:45:04.695Z,13.43
2023-03-19T17:47:51.143Z,13.37
2023-03-19T17:50:37.662Z,13.31
2023-03-19T17:53:25.075Z,13.24
2023-03-19T17:56:12.279Z,13.19
2023-03-19T17:58:58.280Z,13.10
2023-03-19T18:01:44.218Z,13.06
2023-03-19T18:04:30.464Z,12.98
2023-03-19T18:07:16.815Z,12.93
2023-03-19T18:10:04.597Z,12.85
2023-03-19T18:12:50.519Z,12.79
2023-03-19T18:15:36.826Z,12.71
2023-03-19T18:18:23.117Z,12.66
2023-03-19T18:21:10.003Z,12.63
2023-03-19T18:23:57.180Z,12.58
2023-03-19T18:26:44.482Z,12.50
2023-03-19T18:29:30.440Z,12.44
2023-03-19T18:32:17.070Z,12.38
2023-03-19T18:35:03.456Z,12.37
2023-03-19T18:37:50.525Z,12.34
2023-03-19T18:40:36.741Z,12.28
2023-03-19T18:43:24.329Z,12.24
2023-03-19T18:46:10.838Z,12.20
2023-03-19T18:48:58.231Z,12.15
2023-03-19T18:52:00.647Z,12.13
2023-03-19T18:54:47.682Z,12.10
2023-03-19T18:57:33.680Z,12.04
2023-03-19T19:00:22.044Z,12.02
2023-03-19T19:03:08.360Z,11.99
2023-03-19T19:05:55.659Z,11.95
2023-03-19T19:08:41.446Z,11.94
2023-03-19T19:11:27.467Z,11.88
2023-03-19T19:14:14.205Z,11.81
2023-03-19T19:17:01.436Z,11.76
2023-03-19T19:19:47.572Z,11.73
2023-03-19T19:22:35.740Z,11.71
2023-03-19T19:25:22.737Z,11.70
2023-03-19T19:28:11.092Z,11.69
2023-03-19T19:30:57.787Z,11.67
2023-03-19T19:33:45.471Z,11.65
2023-03-19T19:36:31.662Z,11.64
2023-03-19T19:39:18.064Z,11.63
2023-03-19T19:42:04.203Z,11.61
2023-03-19T19:44:51.744Z,11.58
2023-03-19T19:47:37.507Z,11.55
2023-03-19T19:50:26.328Z,11.54
2023-03-19T19:53:12.625Z,11.48
2023-03-19T19:55:58.384Z,11.48
2023-03-19T19:58:44.497Z,11.47
2023-03-19T20:01:30.613Z,11.43
2023-03-19T20:04:16.341Z,11.42
2023-03-19T20:07:04.172Z,11.40
2023-03-19T20:09:50.068Z,11.39
2023-03-19T20:12:35.907Z,11.36
2023-03-19T20:15:23.104Z,11.35
2023-03-19T20:18:11.557Z,11.32
2023-03-19T20:20:58.066Z,11.28
2023-03-19T20:23:45.893Z,11.27
2023-03-19T20:26:33.889Z,11.22
2023-03-19T20:29:19.669Z,11.18
2023-03-19T20:32:06.035Z,11.17
2023-03-19T20:34:51.778Z,11.14
2023-03-19T20:37:37.726Z,11.09
2023-03-19T20:40:26.444Z,11.05
2023-03-19T20:43:18.074Z,11.03
2023-03-19T20:46:05.141Z,11.03
2023-03-19T20:48:51.560Z,11.02
2023-03-19T20:51:37.461Z,10.99
2023-03-19T20:54:23.655Z,10.95
2023-03-19T20:57:13.163Z,10.89
2023-03-19T20:59:59.856Z,10.85
2023-03-19T21:02:46.328Z,10.80
2023-03-19T21:05:34.917Z,10.79
2023-03-19T21:08:24.825Z,10.75
2023-03-19T21:11:12.461Z,10.75
2023-03-19T21:13:59.883Z,10.72
2023-03-19T21:16:46.046Z,10.68
2023-03-19T21:19:31.805Z,10.65
2023-03-19T21:22:18.334Z,10.63
2023-03-19T21:25:05.202Z,10.59
2023-03-19T21:27:52.071Z,10.59
2023-03-19T21:30:41.811Z,10.56
2023-03-19T21:33:28.101Z,10.54
2023-03-19T21:36:14.197Z,10.55
2023-03-19T21:39:01.259Z,10.55
2023-03-19T21:41:47.347Z,10.57
2023-03-19T21:44:33.533Z,10.56
2023-03-19T21:47:22.850Z,10.57
2023-03-19T21:50:11.079Z,10.55
2023-03-19T21:53:01.265Z,10.54
2023-03-19T21:55:47.637Z,10.52
2023-03-19T21:58:34.372Z,10.53
2023-03-19T22:01:21.869Z,10.55
2023-03-19T22:04:09.126Z,10.53
2023-03-19T22:06:56.435Z,10.53
2023-03-19T22:09:42.677Z,10.53
2023-03-19T22:12:28.932Z,10.54
2023-03-19T22:15:20.514Z,10.52
2023-03-19T22:18:08.523Z,10.47
2023-03-19T22:20:56.304Z,10.45
2023-03-19T22:23:42.521Z,10.43
2023-03-19T22:26:29.580Z,10.40
2023-03-19T22:29:16.856Z,10.39
2023-03-19T22:32:02.682Z,10.36
2023-03-19T22:34:48.805Z,10.34
2023-03-19T22:37:36.596Z,10.34
2023-03-19T22:40:22.653Z,10.34
2023-03-19T22:43:14.420Z,10.34
2023-03-19T22:46:02.442Z,10.34
2023-03-19T22:48:49.970Z,10.32
2023-03-19T22:51:35.852Z,10.27
2023-03-19T22:54:23.353Z,10.28
2023-03-19T22:57:11.307Z,10.27
2023-03-19T22:59:57.486Z,10.25
2023-03-19T23:02:43.668Z,10.24
2023-03-19T23:05:34.052Z,10.21
2023-03-19T23:08:21.600Z,10.20
2023-03-19T23:11:09.635Z,10.19
2023-03-19T23:13:56.687Z,10.19
2023-03-19T23:16:43.877Z,10.19
2023-03-19T23:19:30.448Z,10.20
2023-03-19T23:22:16.908Z,10.17
2023-03-19T23:25:03.080Z,10.16
2023-03-19T23:27:51.027Z,10.15
2023-03-19T23:30:41.263Z,10.14
2023-03-19T23:33:27.573Z,10.13
2023-03-19T23:36:13.467Z,10.09
2023-03-19T23:38:59.552Z,10.11
2023-03-19T23:41:46.288Z,10.08
2023-03-19T23:44:34.103Z,10.07
2023-03-19T23:47:20.328Z,10.02
2023-03-19T23:50:08.346Z,10.02
2023-03-19T23:52:54.147Z,9.97
2023-03-19T23:55:40.136Z,9.94
2023-03-19T23:58:26.809Z,9.94
